createdAt,value
2019-03-17T00:01:37.764Z,2.83
2019-03-17T00:04:06.262Z,3.35
2019-03-17T00:06:34.758Z,2.30
2019-03-17T00:09:03.285Z,3.20
2019-03-17T00:11:31.676Z,2.62
2019-03-17T00:14:00.038Z,2.40
2019-03-17T00:16:28.417Z,1.92
2019-03-17T00:18:57.070Z,3.14
2019-03-17T00:21:25.425Z,2.80
2019-03-17T00:23:53.753Z,2.90
2019-03-17T00:26:22.196Z,2.02
2019-03-17T00:28:50.633Z,2.65
2019-03-17T00:31:23.910Z,3.47
2019-03-17T00:33:49.161Z,2.65
2019-03-17T00:36:17.532Z,2.58
2019-03-17T00:38:45.913Z,1.85
2019-03-17T00:41:14.344Z,1.52
2019-03-17T00:43:42.702Z,1.65
2019-03-17T00:46:11.154Z,1.35
2019-03-17T00:48:39.530Z,2.22
2019-03-17T00:51:07.911Z,2.03
2019-03-17T00:53:36.278Z,1.40
2019-03-17T00:56:04.673Z,1.42
2019-03-17T00:58:33.082Z,1.07
2019-03-17T01:01:01.465Z,1.37
2019-03-17T01:03:29.834Z,1.27
2019-03-17T01:05:58.292Z,1.30
2019-03-17T01:08:26.672Z,1.65
2019-03-17T01:10:55.036Z,1.00
2019-03-17T01:13:23.483Z,1.02
2019-03-17T01:15:51.931Z,1.05
2019-03-17T01:18:20.356Z,1.17
2019-03-17T01:20:48.966Z,1.00
2019-03-17T01:23:17.389Z,0.85
2019-03-17T01:25:45.789Z,0.88
2019-03-17T01:28:14.177Z,0.90
2019-03-17T01:30:42.613Z,1.07
2019-03-17T01:33:11.138Z,1.17
2019-03-17T01:35:39.505Z,0.80
2019-03-17T01:38:07.885Z,0.80
2019-03-17T01:40:36.252Z,0.88
2019-03-17T01:43:04.633Z,0.85
2019-03-17T01:45:33.070Z,0.88
2019-03-17T01:48:01.459Z,1.02
2019-03-17T01:50:29.919Z,0.80
2019-03-17T01:52:58.401Z,0.70
2019-03-17T01:55:26.956Z,0.78
2019-03-17T01:57:55.253Z,0.70
2019-03-17T02:00:23.764Z,0.70
2019-03-17T02:02:52.182Z,0.53
2019-03-17T02:05:22.434Z,0.80
2019-03-17T02:07:50.685Z,1.00
2019-03-17T02:10:19.042Z,0.50
2019-03-17T02:12:47.396Z,0.60
2019-03-17T02:15:15.719Z,0.70
2019-03-17T02:17:44.083Z,0.70
2019-03-17T02:20:12.463Z,0.75
2019-03-17T02:22:40.845Z,0.72
2019-03-17T02:25:09.293Z,0.77
2019-03-17T02:27:37.701Z,0.70
2019-03-17T02:30:09.370Z,0.60
2019-03-17T02:32:37.817Z,0.63
2019-03-17T02:35:06.203Z,0.50
2019-03-17T02:37:34.590Z,0.72
2019-03-17T02:40:03.133Z,0.60
2019-03-17T02:42:31.504Z,0.60
2019-03-17T02:45:00.013Z,0.73
2019-03-17T02:47:28.382Z,0.72
2019-03-17T02:49:56.862Z,0.45
2019-03-17T02:52:25.247Z,0.40
2019-03-17T02:54:53.631Z,0.40
2019-03-17T02:57:22.847Z,0.50
2019-03-17T02:59:51.231Z,0.50
2019-03-17T03:02:19.627Z,0.40
2019-03-17T03:04:48.107Z,0.40
2019-03-17T03:07:16.547Z,0.50
2019-03-17T03:09:44.939Z,0.40
2019-03-17T03:12:13.302Z,0.40
2019-03-17T03:14:41.744Z,0.42
2019-03-17T03:17:10.173Z,0.50
2019-03-17T03:19:38.478Z,0.42
2019-03-17T03:22:06.844Z,0.30
2019-03-17T03:24:35.295Z,0.40
2019-03-17T03:27:03.615Z,0.40
2019-03-17T03:29:32.029Z,0.47
2019-03-17T03:32:00.458Z,0.43
2019-03-17T03:34:28.844Z,0.50
2019-03-17T03:36:58.036Z,0.40
2019-03-17T03:39:26.427Z,0.50
2019-03-17T03:41:54.801Z,0.50
2019-03-17T03:44:23.197Z,0.50
2019-03-17T03:46:51.571Z,0.40
2019-03-17T03:49:19.952Z,0.40
2019-03-17T03:51:48.346Z,0.55
2019-03-17T03:54:17.027Z,0.60
2019-03-17T03:56:45.511Z,0.60
2019-03-17T03:59:13.886Z,0.50
2019-03-17T04:01:42.323Z,0.62
2019-03-17T04:04:10.792Z,0.60
2019-03-17T04:06:39.166Z,0.60
2019-03-17T04:09:07.950Z,0.60
2019-03-17T04:11:36.308Z,0.50
2019-03-17T04:14:04.626Z,0.50
2019-03-17T04:16:33.962Z,0.40
2019-03-17T04:19:02.321Z,0.50
2019-03-17T04:21:30.741Z,0.60
2019-03-17T04:23:59.122Z,0.43
2019-03-17T04:26:27.514Z,0.60
2019-03-17T04:28:55.874Z,0.50
2019-03-17T04:31:24.260Z,0.50
2019-03-17T04:33:52.865Z,0.50
2019-03-17T04:36:21.326Z,0.70
2019-03-17T04:38:49.699Z,0.60
2019-03-17T04:41:18.147Z,0.60
2019-03-17T04:43:46.501Z,0.55
2019-03-17T04:46:14.836Z,0.42
2019-03-17T04:48:43.234Z,0.40
2019-03-17T04:51:11.618Z,0.40
2019-03-17T04:53:39.985Z,0.60
2019-03-17T04:56:08.393Z,0.40
2019-03-17T04:58:36.769Z,0.40
2019-03-17T05:01:05.137Z,0.50
2019-03-17T05:03:33.619Z,0.67
2019-03-17T05:06:02.080Z,0.50
2019-03-17T05:08:30.459Z,0.50
2019-03-17T05:10:58.921Z,0.65
2019-03-17T05:13:28.122Z,0.60
2019-03-17T05:15:56.514Z,0.60
2019-03-17T05:18:24.898Z,0.50
2019-03-17T05:20:53.260Z,0.60
2019-03-17T05:23:21.639Z,0.60
2019-03-17T05:25:50.019Z,0.60
2019-03-17T05:28:18.416Z,0.40
2019-03-17T05:30:46.905Z,0.47
2019-03-17T05:33:15.324Z,0.60
2019-03-17T05:35:43.710Z,0.60
2019-03-17T05:38:12.096Z,0.60
2019-03-17T05:40:40.470Z,0.40
2019-03-17T05:43:08.893Z,0.50
2019-03-17T05:45:37.208Z,0.42
2019-03-17T05:48:05.601Z,0.40
2019-03-17T05:50:33.961Z,0.50
2019-03-17T05:53:02.347Z,0.50
2019-03-17T05:55:30.792Z,0.37
2019-03-17T05:57:59.096Z,0.50
2019-03-17T06:00:27.457Z,0.50
2019-03-17T06:02:55.766Z,0.40
2019-03-17T06:05:24.202Z,0.30
2019-03-17T06:07:52.561Z,0.40
2019-03-17T06:10:20.930Z,0.30
2019-03-17T06:12:49.245Z,0.40
2019-03-17T06:15:17.538Z,0.30
2019-03-17T06:17:45.898Z,0.40
2019-03-17T06:20:14.282Z,0.40
2019-03-17T06:22:42.686Z,0.40
2019-03-17T06:25:11.273Z,0.40
2019-03-17T06:27:40.112Z,0.40
2019-03-17T06:30:13.246Z,0.30
2019-03-17T06:32:41.631Z,0.40
2019-03-17T06:35:10.007Z,0.30
2019-03-17T06:37:38.391Z,0.30
2019-03-17T06:40:09.949Z,0.40
2019-03-17T06:42:38.243Z,0.50
2019-03-17T06:45:08.577Z,0.40
2019-03-17T06:47:36.921Z,0.45
2019-03-17T06:50:08.451Z,0.80
2019-03-17T06:52:36.871Z,1.07
2019-03-17T06:55:11.454Z,0.93
2019-03-17T06:57:39.800Z,0.82
2019-03-17T07:00:10.463Z,0.70
2019-03-17T07:02:38.826Z,0.60
2019-03-17T07:05:08.263Z,0.60
2019-03-17T07:07:43.877Z,0.82
2019-03-17T07:10:08.732Z,0.40
2019-03-17T07:12:37.076Z,0.37
2019-03-17T07:15:07.853Z,0.42
2019-03-17T07:17:36.230Z,0.37
2019-03-17T07:20:12.459Z,0.50
2019-03-17T07:22:40.762Z,0.50
2019-03-17T07:25:09.398Z,0.70
2019-03-17T07:27:38.010Z,0.82
2019-03-17T07:30:09.655Z,0.60
2019-03-17T07:32:38.081Z,0.90
2019-03-17T07:35:07.029Z,1.00
2019-03-17T07:37:35.429Z,1.00
2019-03-17T07:40:06.433Z,1.20
2019-03-17T07:42:34.837Z,0.72
2019-03-17T07:45:03.270Z,0.80
2019-03-17T07:47:31.649Z,1.15
2019-03-17T07:50:00.159Z,0.93
2019-03-17T07:52:28.693Z,0.82
2019-03-17T07:54:56.981Z,0.95
2019-03-17T07:57:25.364Z,1.07
2019-03-17T07:59:53.726Z,1.37
2019-03-17T08:02:22.218Z,1.50
2019-03-17T08:04:50.585Z,1.80
2019-03-17T08:07:19.471Z,1.30
2019-03-17T08:09:47.858Z,1.02
2019-03-17T08:12:16.250Z,1.22
2019-03-17T08:14:44.610Z,1.10
2019-03-17T08:17:12.991Z,1.27
2019-03-17T08:19:41.403Z,1.20
2019-03-17T08:22:09.823Z,1.42
2019-03-17T08:24:38.212Z,1.60
2019-03-17T08:27:06.573Z,2.25
2019-03-17T08:29:34.960Z,1.40
2019-03-17T08:32:03.383Z,1.55
2019-03-17T08:34:31.725Z,2.50
2019-03-17T08:37:00.155Z,1.80
2019-03-17T08:39:28.579Z,1.98
2019-03-17T08:41:56.969Z,1.82
2019-03-17T08:44:25.297Z,1.90
2019-03-17T08:46:54.242Z,1.55
2019-03-17T08:49:22.656Z,1.85
2019-03-17T08:51:51.018Z,1.70
2019-03-17T08:54:19.510Z,2.12
2019-03-17T08:56:48.022Z,2.75
2019-03-17T08:59:16.390Z,2.92
2019-03-17T09:01:47.450Z,2.67
2019-03-17T09:04:14.781Z,2.30
2019-03-17T09:06:43.206Z,2.22
2019-03-17T09:09:11.578Z,1.90
2019-03-17T09:11:40.025Z,2.45
2019-03-17T09:14:08.486Z,2.05
2019-03-17T09:16:36.853Z,2.77
2019-03-17T09:19:05.388Z,2.23
2019-03-17T09:21:33.835Z,2.33
2019-03-17T09:24:02.195Z,2.70
2019-03-17T09:26:31.167Z,3.76
2019-03-17T09:28:59.483Z,2.50
2019-03-17T09:31:27.957Z,2.17
2019-03-17T09:33:56.326Z,2.42
2019-03-17T09:36:24.723Z,2.33
2019-03-17T09:38:53.124Z,2.10
2019-03-17T09:41:21.558Z,1.70
2019-03-17T09:43:49.947Z,2.67
2019-03-17T09:46:18.332Z,2.72
2019-03-17T09:48:46.693Z,2.02
2019-03-17T09:51:15.024Z,2.08
2019-03-17T09:53:43.466Z,2.42
2019-03-17T09:56:11.760Z,1.90
2019-03-17T09:58:40.170Z,1.62
2019-03-17T10:01:08.543Z,1.80
2019-03-17T10:03:37.040Z,2.30
2019-03-17T10:06:05.426Z,2.45
2019-03-17T10:08:33.794Z,1.98
2019-03-17T10:11:02.182Z,1.92
2019-03-17T10:13:30.651Z,1.98
2019-03-17T10:15:59.099Z,2.17
2019-03-17T10:18:27.473Z,1.80
2019-03-17T10:20:55.965Z,1.95
2019-03-17T10:23:25.117Z,2.20
2019-03-17T10:25:53.489Z,2.02
2019-03-17T10:28:21.883Z,1.70
2019-03-17T10:30:50.287Z,2.13
2019-03-17T10:33:18.662Z,2.67
2019-03-17T10:35:47.061Z,1.80
2019-03-17T10:38:15.424Z,1.98
2019-03-17T10:40:44.460Z,2.24
2019-03-17T10:43:12.854Z,2.12
2019-03-17T10:45:41.218Z,1.65
2019-03-17T10:48:09.532Z,1.70
2019-03-17T10:50:49.121Z,1.80
2019-03-17T10:53:07.943Z,1.37
2019-03-17T10:55:36.307Z,1.67
2019-03-17T10:58:04.696Z,2.12
2019-03-17T11:00:33.131Z,1.37
2019-03-17T11:03:01.522Z,1.80
2019-03-17T11:05:29.889Z,2.20
2019-03-17T11:07:58.273Z,1.92
2019-03-17T11:10:26.708Z,1.92
2019-03-17T11:12:55.229Z,1.98
2019-03-17T11:15:23.936Z,1.50
2019-03-17T11:17:52.464Z,2.12
2019-03-17T11:20:22.032Z,2.30
2019-03-17T11:22:50.488Z,1.80
2019-03-17T11:25:19.950Z,1.92
2019-03-17T11:27:48.358Z,1.37
2019-03-17T11:30:17.985Z,1.65
2019-03-17T11:32:46.397Z,1.00
2019-03-17T11:35:14.841Z,1.17
2019-03-17T11:37:43.366Z,1.33
2019-03-17T11:40:14.742Z,1.32
2019-03-17T11:42:43.162Z,1.97
2019-03-17T11:45:15.094Z,1.22
2019-03-17T11:50:18.604Z,1.55
2019-03-17T11:52:46.984Z,1.45
2019-03-17T11:55:15.392Z,1.32
2019-03-17T11:57:43.895Z,1.37
2019-03-17T12:00:18.217Z,1.60
2019-03-17T12:02:46.567Z,1.52
2019-03-17T12:05:15.033Z,1.25
2019-03-17T12:07:43.506Z,1.80
2019-03-17T12:10:15.906Z,1.75
2019-03-17T12:12:44.551Z,1.60
2019-03-17T12:15:21.683Z,1.20
2019-03-17T12:17:51.545Z,1.05
2019-03-17T12:20:19.964Z,0.93
2019-03-17T12:22:48.396Z,1.62
2019-03-17T12:25:17.933Z,1.37
2019-03-17T12:27:46.331Z,1.17
2019-03-17T12:30:23.732Z,1.52
2019-03-17T12:32:52.758Z,1.10
2019-03-17T12:35:22.458Z,1.00
2019-03-17T12:37:50.823Z,1.12
2019-03-17T12:40:19.218Z,1.50
2019-03-17T12:42:47.607Z,1.40
2019-03-17T12:45:15.973Z,1.35
2019-03-17T12:47:44.517Z,1.35
2019-03-17T12:50:17.234Z,1.47
2019-03-17T12:52:46.226Z,1.20
2019-03-17T12:55:14.622Z,1.42
2019-03-17T12:57:43.198Z,1.50
2019-03-17T13:00:14.978Z,1.45
2019-03-17T13:02:46.173Z,1.13
2019-03-17T13:05:14.538Z,2.10
2019-03-17T13:07:42.976Z,1.52
2019-03-17T13:10:30.769Z,1.30
2019-03-17T13:12:59.163Z,1.57
2019-03-17T13:15:27.525Z,1.83
2019-03-17T13:17:55.841Z,1.12
2019-03-17T13:20:24.312Z,0.98
2019-03-17T13:22:52.637Z,1.17
2019-03-17T13:25:20.991Z,0.90
2019-03-17T13:27:49.454Z,1.52
2019-03-17T13:30:18.562Z,1.05
2019-03-17T13:32:46.921Z,1.40
2019-03-17T13:35:15.373Z,1.23
2019-03-17T13:37:43.832Z,1.32
2019-03-17T13:40:28.098Z,1.72
2019-03-17T13:42:47.338Z,1.77
2019-03-17T13:45:15.742Z,0.85
2019-03-17T13:47:44.166Z,1.87
2019-03-17T13:50:20.618Z,0.93
2019-03-17T13:52:49.076Z,1.32
2019-03-17T13:55:17.470Z,1.42
2019-03-17T13:58:03.738Z,1.02
2019-03-17T14:00:32.184Z,1.40
2019-03-17T14:03:00.569Z,1.57
2019-03-17T14:05:28.868Z,1.50
2019-03-17T14:07:58.232Z,1.50
2019-03-17T14:10:26.690Z,1.07
2019-03-17T14:12:55.132Z,1.25
2019-03-17T14:15:23.535Z,1.70
2019-03-17T14:17:51.946Z,1.77
2019-03-17T14:20:22.200Z,1.27
2019-03-17T14:22:50.700Z,1.87
2019-03-17T14:25:27.133Z,1.70
2019-03-17T14:27:55.836Z,1.47
2019-03-17T14:30:24.233Z,1.87
2019-03-17T14:32:52.660Z,1.67
2019-03-17T14:35:21.657Z,1.73
2019-03-17T14:37:50.493Z,1.32
2019-03-17T14:40:18.985Z,1.72
2019-03-17T14:42:48.597Z,1.10
2019-03-17T14:45:17.881Z,1.40
2019-03-17T14:47:46.332Z,1.40
2019-03-17T14:50:19.351Z,1.67
2019-03-17T14:52:47.738Z,2.03
2019-03-17T14:55:16.103Z,1.30
2019-03-17T14:57:45.016Z,1.32
2019-03-17T15:00:21.289Z,2.00
2019-03-17T15:02:49.972Z,1.50
2019-03-17T15:05:18.346Z,1.60
2019-03-17T15:07:47.138Z,1.20
2019-03-17T15:10:21.716Z,1.98
2019-03-17T15:12:50.121Z,1.72
2019-03-17T15:15:19.591Z,2.07
2019-03-17T15:17:48.199Z,1.37
2019-03-17T15:20:24.012Z,1.37
2019-03-17T15:22:52.441Z,1.10
2019-03-17T15:25:20.835Z,1.02
2019-03-17T15:27:49.430Z,1.17
2019-03-17T15:30:25.227Z,1.20
2019-03-17T15:32:53.586Z,0.95
2019-03-17T15:35:21.971Z,1.32
2019-03-17T15:37:50.371Z,1.00
2019-03-17T15:40:19.577Z,1.32
2019-03-17T15:42:47.970Z,1.32
2019-03-17T15:45:25.922Z,0.85
2019-03-17T15:47:54.291Z,0.95
2019-03-17T15:50:28.982Z,0.90
2019-03-17T15:52:57.366Z,1.10
2019-03-17T15:55:25.774Z,0.93
2019-03-17T15:57:54.064Z,1.30
2019-03-17T16:00:26.369Z,0.88
2019-03-17T16:02:53.479Z,1.00
2019-03-17T16:05:21.907Z,1.50
2019-03-17T16:07:51.253Z,1.23
2019-03-17T16:10:29.072Z,1.07
2019-03-17T16:12:57.489Z,1.27
2019-03-17T16:15:25.961Z,1.10
2019-03-17T16:17:54.327Z,1.90
2019-03-17T16:20:24.811Z,1.40
2019-03-17T16:22:53.296Z,1.10
2019-03-17T16:25:36.502Z,1.00
2019-03-17T16:28:04.940Z,1.00
2019-03-17T16:30:33.843Z,1.12
2019-03-17T16:33:02.158Z,0.90
2019-03-17T16:35:30.566Z,1.07
2019-03-17T16:37:58.971Z,1.10
2019-03-17T16:40:30.598Z,1.20
2019-03-17T16:42:58.956Z,1.32
2019-03-17T16:45:28.235Z,1.10
2019-03-17T16:47:56.694Z,1.87
2019-03-17T16:50:25.120Z,1.40
2019-03-17T16:52:53.509Z,1.60
2019-03-17T16:55:21.936Z,1.40
2019-03-17T16:57:50.398Z,1.87
2019-03-17T17:00:23.866Z,2.02
2019-03-17T17:02:52.333Z,1.45
2019-03-17T17:05:21.820Z,1.27
2019-03-17T17:07:50.209Z,1.40
2019-03-17T17:10:49.903Z,1.80
2019-03-17T17:13:12.722Z,1.57
2019-03-17T17:15:41.151Z,1.85
2019-03-17T17:18:09.514Z,1.30
2019-03-17T17:20:40.011Z,1.42
2019-03-17T17:23:08.506Z,1.10
2019-03-17T17:25:36.938Z,1.67
2019-03-17T17:28:05.276Z,1.27
2019-03-17T17:30:33.688Z,0.80
2019-03-17T17:33:02.046Z,1.80
2019-03-17T17:35:30.414Z,1.35
2019-03-17T17:37:58.874Z,1.25
2019-03-17T17:40:49.385Z,1.00
2019-03-17T17:43:17.818Z,1.20
2019-03-17T17:45:46.379Z,1.37
2019-03-17T17:48:14.855Z,0.90
2019-03-17T17:50:43.232Z,1.37
2019-03-17T17:53:11.686Z,1.35
2019-03-17T17:55:40.076Z,1.10
2019-03-17T17:58:08.485Z,1.85
2019-03-17T18:00:44.474Z,1.60
2019-03-17T18:03:12.889Z,1.47
2019-03-17T18:05:41.447Z,1.00
2019-03-17T18:08:09.887Z,1.27
2019-03-17T18:10:38.320Z,2.30
2019-03-17T18:13:06.774Z,1.52
2019-03-17T18:15:35.447Z,1.37
2019-03-17T18:18:03.758Z,1.30
2019-03-17T18:20:32.288Z,1.27
2019-03-17T18:23:00.698Z,2.40
2019-03-17T18:25:29.072Z,1.42
2019-03-17T18:27:58.162Z,1.50
2019-03-17T18:30:26.569Z,1.15
2019-03-17T18:32:54.930Z,1.70
2019-03-17T18:35:23.349Z,1.05
2019-03-17T18:37:51.731Z,1.55
2019-03-17T18:40:20.901Z,1.50
2019-03-17T18:42:49.270Z,2.12
2019-03-17T18:45:29.152Z,1.60
2019-03-17T18:47:58.249Z,2.00
2019-03-17T18:50:26.813Z,1.85
2019-03-17T18:52:55.268Z,1.63
2019-03-17T18:55:24.147Z,1.30
2019-03-17T18:57:52.537Z,1.17
2019-03-17T19:00:24.647Z,1.80
2019-03-17T19:02:53.173Z,1.55
2019-03-17T19:05:21.644Z,1.62
2019-03-17T19:07:50.127Z,1.62
2019-03-17T19:10:20.612Z,2.17
2019-03-17T19:12:49.054Z,1.52
2019-03-17T19:15:21.095Z,2.30
2019-03-17T19:17:49.573Z,1.50
2019-03-17T19:20:24.356Z,1.57
2019-03-17T19:22:52.769Z,1.62
2019-03-17T19:25:22.589Z,1.40
2019-03-17T19:27:51.064Z,1.17
2019-03-17T19:30:21.746Z,1.32
2019-03-17T19:32:50.132Z,1.45
2019-03-17T19:35:18.502Z,1.27
2019-03-17T19:37:46.980Z,1.65
2019-03-17T19:40:17.547Z,1.10
2019-03-17T19:42:57.492Z,0.95
2019-03-17T19:45:15.946Z,1.42
2019-03-17T19:47:44.340Z,0.82
2019-03-17T19:50:21.054Z,1.07
2019-03-17T19:52:49.443Z,1.37
2019-03-17T19:55:18.165Z,1.84
2019-03-17T19:57:46.637Z,1.80
2019-03-17T20:00:21.990Z,0.90
2019-03-17T20:02:50.401Z,1.37
2019-03-17T20:05:18.838Z,1.32
2019-03-17T20:07:47.209Z,1.30
2019-03-17T20:10:23.977Z,1.10
2019-03-17T20:12:52.445Z,1.70
2019-03-17T20:15:20.883Z,2.35
2019-03-17T20:17:49.275Z,2.03
2019-03-17T20:20:19.205Z,1.75
2019-03-17T20:22:48.186Z,1.57
2019-03-17T20:25:16.640Z,1.10
2019-03-17T20:27:45.042Z,1.42
2019-03-17T20:30:17.582Z,2.00
2019-03-17T20:35:14.102Z,1.85
2019-03-17T20:37:42.600Z,1.45
2019-03-17T20:40:16.141Z,2.27
2019-03-17T20:42:44.632Z,2.10
2019-03-17T20:45:14.573Z,1.50
2019-03-17T20:47:43.015Z,1.90
2019-03-17T20:50:15.592Z,1.50
2019-03-17T20:52:44.097Z,1.30
2019-03-17T20:55:12.749Z,1.82
2019-03-17T20:57:41.163Z,1.85
2019-03-17T21:00:12.776Z,1.57
2019-03-17T21:02:40.933Z,1.43
2019-03-17T21:05:10.788Z,1.15
2019-03-17T21:07:39.491Z,1.52
2019-03-17T21:10:12.773Z,1.30
2019-03-17T21:12:41.205Z,0.95
2019-03-17T21:15:17.339Z,1.10
2019-03-17T21:17:45.801Z,1.62
2019-03-17T21:20:18.294Z,1.47
2019-03-17T21:22:46.726Z,1.40
2019-03-17T21:25:15.142Z,1.72
2019-03-17T21:27:44.000Z,1.27
2019-03-17T21:30:16.733Z,1.50
2019-03-17T21:32:45.128Z,1.20
2019-03-17T21:35:13.604Z,1.35
2019-03-17T21:37:41.944Z,1.40
2019-03-17T21:40:11.663Z,1.60
2019-03-17T21:42:40.071Z,5.40
2019-03-17T21:45:10.116Z,1.10
2019-03-17T21:47:38.328Z,2.10
2019-03-17T21:50:08.287Z,1.80
2019-03-17T21:52:36.429Z,1.52
2019-03-17T21:55:05.878Z,1.75
2019-03-17T21:57:34.081Z,1.60
2019-03-17T22:00:02.207Z,1.87
2019-03-17T22:02:30.333Z,1.45
2019-03-17T22:04:58.405Z,1.77
2019-03-17T22:07:26.587Z,1.85
2019-03-17T22:09:54.974Z,1.77
2019-03-17T22:12:24.078Z,1.40
2019-03-17T22:14:52.517Z,1.37
2019-03-17T22:17:20.948Z,1.60
2019-03-17T22:19:49.351Z,1.52
2019-03-17T22:22:17.500Z,1.60
2019-03-17T22:24:45.935Z,1.30
2019-03-17T22:27:14.330Z,1.40
2019-03-17T22:29:42.686Z,1.52
2019-03-17T22:32:11.072Z,2.15
2019-03-17T22:34:39.414Z,1.65
2019-03-17T22:37:07.838Z,2.27
2019-03-17T22:39:36.208Z,1.42
2019-03-17T22:42:04.554Z,1.37
2019-03-17T22:44:32.918Z,1.90
2019-03-17T22:47:01.257Z,1.65
2019-03-17T22:49:29.367Z,1.40
2019-03-17T22:51:57.747Z,1.30
2019-03-17T22:54:26.123Z,1.15
2019-03-17T22:56:54.272Z,1.15
2019-03-17T22:59:22.390Z,0.80
2019-03-17T23:01:51.017Z,0.65
2019-03-17T23:04:21.932Z,0.50
2019-03-17T23:06:49.517Z,0.80
2019-03-17T23:09:17.837Z,0.57
2019-03-17T23:11:46.157Z,0.70
2019-03-17T23:14:14.561Z,0.50
2019-03-17T23:16:42.925Z,0.62
2019-03-17T23:19:11.285Z,0.50
2019-03-17T23:21:39.667Z,0.50
2019-03-17T23:24:07.809Z,0.72
2019-03-17T23:26:36.202Z,0.85
2019-03-17T23:29:04.745Z,0.80
2019-03-17T23:31:33.190Z,1.10
2019-03-17T23:34:01.582Z,1.20
2019-03-17T23:36:29.884Z,1.10
2019-03-17T23:38:58.238Z,0.88
2019-03-17T23:41:26.598Z,1.12
2019-03-17T23:43:54.934Z,1.37
2019-03-17T23:46:23.373Z,1.55
2019-03-17T23:48:51.754Z,1.50
2019-03-17T23:51:20.156Z,1.70
2019-03-17T23:53:48.524Z,1.50
2019-03-17T23:56:16.922Z,1.72
2019-03-17T23:58:45.371Z,1.57
